sensor_id;sensor_type;location;lat;lon;timestamp;P1;durP1;ratioP1;P2;durP2;ratioP2
18685;SDS011;9473;52.342;13.110;2023-03-23T00:01:08;2.92;;;1.40;;
18685;SDS011;9473;52.342;13.110;2023-03-23T00:03:37;3.97;;;1.40;;
18685;SDS011;9473;52.342;13.110;2023-03-23T00:06:04;2.50;;;1.50;;
18685;SDS011;9473;52.342;13.110;2023-03-23T00:08:32;4.43;;;1.52;;
18685;SDS011;9473;52.342;13.110;2023-03-23T00:11:02;2.72;;;1.60;;
18685;SDS011;9473;52.342;13.110;2023-03-23T00:13:29;3.75;;;1.65;;
18685;SDS011;9473;52.342;13.110;2023-03-23T00:15:57;3.80;;;1.60;;
18685;SDS011;9473;52.342;13.110;2023-03-23T00:18:26;3.03;;;1.60;;
18685;SDS011;9473;52.342;13.110;2023-03-23T00:20:54;4.88;;;1.88;;
18685;SDS011;9473;52.342;13.110;2023-03-23T00:23:23;4.85;;;1.55;;
18685;SDS011;9473;52.342;13.110;2023-03-23T00:25:51;2.20;;;1.60;;
18685;SDS011;9473;52.342;13.110;2023-03-23T00:28:21;3.47;;;1.50;;
18685;SDS011;9473;52.342;13.110;2023-03-23T00:30:53;2.78;;;1.50;;
18685;SDS011;9473;52.342;13.110;2023-03-23T00:33:21;2.30;;;1.42;;
18685;SDS011;9473;52.342;13.110;2023-03-23T00:35:50;3.00;;;1.40;;
18685;SDS011;9473;52.342;13.110;2023-03-23T00:38:17;1.98;;;1.40;;
18685;SDS011;9473;52.342;13.110;2023-03-23T00:40:45;2.58;;;1.90;;
18685;SDS011;9473;52.342;13.110;2023-03-23T00:43:12;4.07;;;1.73;;
18685;SDS011;9473;52.342;13.110;2023-03-23T00:45:41;2.45;;;1.30;;
18685;SDS011;9473;52.342;13.110;2023-03-23T00:48:09;3.20;;;1.45;;
18685;SDS011;9473;52.342;13.110;2023-03-23T00:50:37;4.60;;;1.60;;
18685;SDS011;9473;52.342;13.110;2023-03-23T00:53:05;1.85;;;1.40;;
18685;SDS011;9473;52.342;13.110;2023-03-23T00:55:32;3.85;;;1.20;;
18685;SDS011;9473;52.342;13.110;2023-03-23T00:58:00;2.30;;;1.60;;
18685;SDS011;9473;52.342;13.110;2023-03-23T01:00:27;3.10;;;1.70;;
18685;SDS011;9473;52.342;13.110;2023-03-23T01:02:54;4.97;;;1.50;;
18685;SDS011;9473;52.342;13.110;2023-03-23T01:05:21;2.83;;;1.52;;
18685;SDS011;9473;52.342;13.110;2023-03-23T01:07:47;4.65;;;1.67;;
18685;SDS011;9473;52.342;13.110;2023-03-23T01:10:16;3.60;;;1.50;;
18685;SDS011;9473;52.342;13.110;2023-03-23T01:12:43;2.78;;;1.63;;
18685;SDS011;9473;52.342;13.110;2023-03-23T01:15:14;1.95;;;1.27;;
18685;SDS011;9473;52.342;13.110;2023-03-23T01:17:42;1.92;;;1.55;;
18685;SDS011;9473;52.342;13.110;2023-03-23T01:20:09;4.63;;;1.60;;
18685;SDS011;9473;52.342;13.110;2023-03-23T01:22:36;2.33;;;1.42;;
18685;SDS011;9473;52.342;13.110;2023-03-23T01:25:03;2.38;;;1.60;;
18685;SDS011;9473;52.342;13.110;2023-03-23T01:27:32;2.60;;;1.52;;
18685;SDS011;9473;52.342;13.110;2023-03-23T01:29:59;1.92;;;1.63;;
18685;SDS011;9473;52.342;13.110;2023-03-23T01:32:26;3.45;;;1.60;;
18685;SDS011;9473;52.342;13.110;2023-03-23T01:34:53;2.10;;;1.42;;
18685;SDS011;9473;52.342;13.110;2023-03-23T01:37:20;5.15;;;1.83;;
18685;SDS011;9473;52.342;13.110;2023-03-23T01:39:51;2.08;;;1.50;;
18685;SDS011;9473;52.342;13.110;2023-03-23T01:42:18;3.20;;;1.65;;
18685;SDS011;9473;52.342;13.110;2023-03-23T01:47:32;3.65;;;1.58;;
18685;SDS011;9473;52.342;13.110;2023-03-23T01:50:00;3.53;;;1.40;;
18685;SDS011;9473;52.342;13.110;2023-03-23T01:52:26;6.97;;;2.00;;
18685;SDS011;9473;52.342;13.110;2023-03-23T01:54:54;3.40;;;1.50;;
18685;SDS011;9473;52.342;13.110;2023-03-23T01:57:23;3.20;;;1.48;;
18685;SDS011;9473;52.342;13.110;2023-03-23T01:59:52;2.40;;;1.50;;
18685;SDS011;9473;52.342;13.110;2023-03-23T02:02:20;2.78;;;1.50;;
18685;SDS011;9473;52.342;13.110;2023-03-23T02:04:49;2.20;;;1.75;;
18685;SDS011;9473;52.342;13.110;2023-03-23T02:07:16;2.45;;;1.45;;
18685;SDS011;9473;52.342;13.110;2023-03-23T02:09:44;2.63;;;1.48;;
18685;SDS011;9473;52.342;13.110;2023-03-23T02:12:11;2.88;;;1.48;;
18685;SDS011;9473;52.342;13.110;2023-03-23T02:14:38;1.92;;;1.48;;
18685;SDS011;9473;52.342;13.110;2023-03-23T02:17:07;2.70;;;1.80;;
18685;SDS011;9473;52.342;13.110;2023-03-23T02:19:41;2.92;;;1.48;;
18685;SDS011;9473;52.342;13.110;2023-03-23T02:22:24;2.45;;;1.52;;
18685;SDS011;9473;52.342;13.110;2023-03-23T02:24:56;3.30;;;1.27;;
18685;SDS011;9473;52.342;13.110;2023-03-23T02:33:27;3.90;;;1.50;;
18685;SDS011;9473;52.342;13.110;2023-03-23T02:35:56;2.13;;;1.50;;
18685;SDS011;9473;52.342;13.110;2023-03-23T02:38:25;3.08;;;1.52;;
18685;SDS011;9473;52.342;13.110;2023-03-23T02:40:55;1.80;;;1.48;;
18685;SDS011;9473;52.342;13.110;2023-03-23T02:43:24;4.78;;;1.50;;
18685;SDS011;9473;52.342;13.110;2023-03-23T02:45:52;3.33;;;1.58;;
18685;SDS011;9473;52.342;13.110;2023-03-23T02:48:20;4.43;;;1.45;;
18685;SDS011;9473;52.342;13.110;2023-03-23T02:50:51;3.53;;;1.50;;
18685;SDS011;9473;52.342;13.110;2023-03-23T02:53:19;2.55;;;1.70;;
18685;SDS011;9473;52.342;13.110;2023-03-23T02:55:47;1.58;;;1.30;;
18685;SDS011;9473;52.342;13.110;2023-03-23T02:58:17;2.10;;;1.42;;
18685;SDS011;9473;52.342;13.110;2023-03-23T03:00:45;1.83;;;1.40;;
18685;SDS011;9473;52.342;13.110;2023-03-23T03:03:14;4.25;;;1.38;;
18685;SDS011;9473;52.342;13.110;2023-03-23T03:05:43;2.28;;;1.70;;
18685;SDS011;9473;52.342;13.110;2023-03-23T03:08:15;3.50;;;1.60;;
18685;SDS011;9473;52.342;13.110;2023-03-23T03:10:46;1.40;;;1.30;;
18685;SDS011;9473;52.342;13.110;2023-03-23T03:13:18;2.72;;;1.70;;
18685;SDS011;9473;52.342;13.110;2023-03-23T03:15:47;4.15;;;1.58;;
18685;SDS011;9473;52.342;13.110;2023-03-23T03:18:18;3.65;;;1.40;;
18685;SDS011;9473;52.342;13.110;2023-03-23T03:20:48;2.75;;;1.40;;
18685;SDS011;9473;52.342;13.110;2023-03-23T03:23:20;2.20;;;1.35;;
18685;SDS011;9473;52.342;13.110;2023-03-23T03:25:48;2.28;;;1.52;;
18685;SDS011;9473;52.342;13.110;2023-03-23T03:28:16;2.53;;;1.40;;
18685;SDS011;9473;52.342;13.110;2023-03-23T03:30:46;6.35;;;1.83;;
18685;SDS011;9473;52.342;13.110;2023-03-23T03:33:13;2.28;;;1.40;;
18685;SDS011;9473;52.342;13.110;2023-03-23T03:35:42;3.63;;;1.40;;
18685;SDS011;9473;52.342;13.110;2023-03-23T03:38:10;3.25;;;1.45;;
18685;SDS011;9473;52.342;13.110;2023-03-23T03:40:38;4.07;;;1.80;;
18685;SDS011;9473;52.342;13.110;2023-03-23T03:43:05;2.58;;;1.45;;
18685;SDS011;9473;52.342;13.110;2023-03-23T03:45:33;3.15;;;1.45;;
18685;SDS011;9473;52.342;13.110;2023-03-23T03:48:00;3.17;;;1.50;;
18685;SDS011;9473;52.342;13.110;2023-03-23T03:50:27;3.17;;;1.52;;
18685;SDS011;9473;52.342;13.110;2023-03-23T03:52:54;2.75;;;1.35;;
18685;SDS011;9473;52.342;13.110;2023-03-23T03:55:22;3.08;;;1.52;;
18685;SDS011;9473;52.342;13.110;2023-03-23T03:57:51;3.90;;;1.52;;
18685;SDS011;9473;52.342;13.110;2023-03-23T04:00:19;3.85;;;1.35;;
18685;SDS011;9473;52.342;13.110;2023-03-23T04:02:48;2.20;;;1.50;;
18685;SDS011;9473;52.342;13.110;2023-03-23T04:05:19;3.97;;;1.55;;
18685;SDS011;9473;52.342;13.110;2023-03-23T04:07:46;3.50;;;1.73;;
18685;SDS011;9473;52.342;13.110;2023-03-23T04:10:14;3.05;;;1.38;;
18685;SDS011;9473;52.342;13.110;2023-03-23T04:12:41;3.58;;;1.55;;
18685;SDS011;9473;52.342;13.110;2023-03-23T04:15:10;9.23;;;1.80;;
18685;SDS011;9473;52.342;13.110;2023-03-23T04:17:37;2.25;;;1.55;;
18685;SDS011;9473;52.342;13.110;2023-03-23T04:20:06;8.43;;;1.58;;
18685;SDS011;9473;52.342;13.110;2023-03-23T04:22:36;2.42;;;1.40;;
18685;SDS011;9473;52.342;13.110;2023-03-23T04:25:03;5.25;;;1.52;;
18685;SDS011;9473;52.342;13.110;2023-03-23T04:27:31;3.08;;;1.42;;
18685;SDS011;9473;52.342;13.110;2023-03-23T04:29:58;2.85;;;1.45;;
18685;SDS011;9473;52.342;13.110;2023-03-23T04:32:26;3.92;;;1.50;;
18685;SDS011;9473;52.342;13.110;2023-03-23T04:34:55;3.63;;;1.60;;
18685;SDS011;9473;52.342;13.110;2023-03-23T04:37:22;3.55;;;1.67;;
18685;SDS011;9473;52.342;13.110;2023-03-23T04:39:53;2.28;;;1.55;;
18685;SDS011;9473;52.342;13.110;2023-03-23T04:42:25;2.60;;;1.38;;
18685;SDS011;9473;52.342;13.110;2023-03-23T04:44:52;2.88;;;1.60;;
18685;SDS011;9473;52.342;13.110;2023-03-23T04:47:19;1.92;;;1.35;;
18685;SDS011;9473;52.342;13.110;2023-03-23T04:49:47;2.90;;;1.70;;
18685;SDS011;9473;52.342;13.110;2023-03-23T04:52:15;3.13;;;1.40;;
18685;SDS011;9473;52.342;13.110;2023-03-23T04:54:42;5.57;;;1.60;;
18685;SDS011;9473;52.342;13.110;2023-03-23T04:57:10;2.13;;;1.48;;
18685;SDS011;9473;52.342;13.110;2023-03-23T04:59:37;2.63;;;1.20;;
18685;SDS011;9473;52.342;13.110;2023-03-23T05:02:04;3.83;;;1.60;;
18685;SDS011;9473;52.342;13.110;2023-03-23T05:04:31;1.95;;;1.30;;
18685;SDS011;9473;52.342;13.110;2023-03-23T05:06:59;3.20;;;1.60;;
18685;SDS011;9473;52.342;13.110;2023-03-23T05:09:26;3.47;;;1.50;;
18685;SDS011;9473;52.342;13.110;2023-03-23T05:11:53;1.63;;;1.38;;
18685;SDS011;9473;52.342;13.110;2023-03-23T05:14:20;3.40;;;1.70;;
18685;SDS011;9473;52.342;13.110;2023-03-23T05:16:47;2.40;;;1.40;;
18685;SDS011;9473;52.342;13.110;2023-03-23T05:19:16;2.67;;;1.50;;
18685;SDS011;9473;52.342;13.110;2023-03-23T05:21:43;3.17;;;1.40;;
18685;SDS011;9473;52.342;13.110;2023-03-23T05:24:12;1.65;;;1.30;;
18685;SDS011;9473;52.342;13.110;2023-03-23T05:26:38;3.72;;;1.48;;
18685;SDS011;9473;52.342;13.110;2023-03-23T05:29:05;2.85;;;1.60;;
18685;SDS011;9473;52.342;13.110;2023-03-23T05:31:32;3.45;;;1.38;;
18685;SDS011;9473;52.342;13.110;2023-03-23T05:33:59;3.13;;;1.38;;
18685;SDS011;9473;52.342;13.110;2023-03-23T05:36:28;2.03;;;1.30;;
18685;SDS011;9473;52.342;13.110;2023-03-23T05:38:55;1.30;;;1.10;;
18685;SDS011;9473;52.342;13.110;2023-03-23T05:41:26;3.33;;;1.30;;
18685;SDS011;9473;52.342;13.110;2023-03-23T05:43:53;2.75;;;1.20;;
18685;SDS011;9473;52.342;13.110;2023-03-23T05:46:20;1.67;;;1.10;;
18685;SDS011;9473;52.342;13.110;2023-03-23T05:48:47;2.47;;;1.30;;
18685;SDS011;9473;52.342;13.110;2023-03-23T05:51:14;2.88;;;1.30;;
18685;SDS011;9473;52.342;13.110;2023-03-23T05:53:41;2.83;;;1.52;;
18685;SDS011;9473;52.342;13.110;2023-03-23T05:56:08;1.95;;;1.38;;
18685;SDS011;9473;52.342;13.110;2023-03-23T05:58:36;2.00;;;1.42;;
18685;SDS011;9473;52.342;13.110;2023-03-23T06:01:05;4.07;;;2.17;;
18685;SDS011;9473;52.342;13.110;2023-03-23T06:03:32;4.22;;;2.30;;
18685;SDS011;9473;52.342;13.110;2023-03-23T06:06:00;6.07;;;2.60;;
18685;SDS011;9473;52.342;13.110;2023-03-23T06:08:27;5.03;;;2.47;;
18685;SDS011;9473;52.342;13.110;2023-03-23T06:10:55;3.85;;;2.50;;
18685;SDS011;9473;52.342;13.110;2023-03-23T06:13:22;8.07;;;2.47;;
18685;SDS011;9473;52.342;13.110;2023-03-23T06:15:54;5.95;;;2.10;;
18685;SDS011;9473;52.342;13.110;2023-03-23T06:18:22;4.03;;;1.77;;
18685;SDS011;9473;52.342;13.110;2023-03-23T06:20:49;3.28;;;1.70;;
18685;SDS011;9473;52.342;13.110;2023-03-23T06:23:17;3.70;;;1.48;;
18685;SDS011;9473;52.342;13.110;2023-03-23T06:25:44;1.95;;;1.40;;
18685;SDS011;9473;52.342;13.110;2023-03-23T06:28:10;2.67;;;1.58;;
18685;SDS011;9473;52.342;13.110;2023-03-23T06:30:37;3.63;;;1.48;;
18685;SDS011;9473;52.342;13.110;2023-03-23T06:33:06;3.80;;;1.40;;
18685;SDS011;9473;52.342;13.110;2023-03-23T06:35:34;4.40;;;1.60;;
18685;SDS011;9473;52.342;13.110;2023-03-23T06:38:01;3.92;;;1.38;;
18685;SDS011;9473;52.342;13.110;2023-03-23T06:40:29;1.90;;;1.30;;
18685;SDS011;9473;52.342;13.110;2023-03-23T06:42:56;2.88;;;1.40;;
18685;SDS011;9473;52.342;13.110;2023-03-23T06:45:23;3.92;;;1.60;;
18685;SDS011;9473;52.342;13.110;2023-03-23T06:47:50;3.40;;;1.48;;
18685;SDS011;9473;52.342;13.110;2023-03-23T06:50:19;2.58;;;1.30;;
18685;SDS011;9473;52.342;13.110;2023-03-23T06:52:46;4.13;;;1.55;;
18685;SDS011;9473;52.342;13.110;2023-03-23T06:55:13;4.78;;;1.63;;
18685;SDS011;9473;52.342;13.110;2023-03-23T06:57:40;3.88;;;1.55;;
18685;SDS011;9473;52.342;13.110;2023-03-23T07:00:07;3.17;;;1.50;;
18685;SDS011;9473;52.342;13.110;2023-03-23T07:02:36;2.67;;;1.40;;
18685;SDS011;9473;52.342;13.110;2023-03-23T07:05:04;3.33;;;1.45;;
18685;SDS011;9473;52.342;13.110;2023-03-23T07:07:32;2.17;;;1.50;;
18685;SDS011;9473;52.342;13.110;2023-03-23T07:09:59;3.30;;;1.75;;
18685;SDS011;9473;52.342;13.110;2023-03-23T07:12:27;2.90;;;1.30;;
18685;SDS011;9473;52.342;13.110;2023-03-23T07:14:54;3.72;;;1.60;;
18685;SDS011;9473;52.342;13.110;2023-03-23T07:17:21;5.15;;;1.67;;
18685;SDS011;9473;52.342;13.110;2023-03-23T07:19:47;3.35;;;1.90;;
18685;SDS011;9473;52.342;13.110;2023-03-23T07:22:14;4.07;;;1.60;;
18685;SDS011;9473;52.342;13.110;2023-03-23T07:24:43;4.03;;;1.50;;
18685;SDS011;9473;52.342;13.110;2023-03-23T07:27:10;3.20;;;1.52;;
18685;SDS011;9473;52.342;13.110;2023-03-23T07:29:37;3.28;;;1.50;;
18685;SDS011;9473;52.342;13.110;2023-03-23T07:32:04;2.22;;;1.42;;
18685;SDS011;9473;52.342;13.110;2023-03-23T07:34:31;4.93;;;1.77;;
18685;SDS011;9473;52.342;13.110;2023-03-23T07:36:58;3.40;;;1.83;;
18685;SDS011;9473;52.342;13.110;2023-03-23T07:39:25;3.47;;;1.50;;
18685;SDS011;9473;52.342;13.110;2023-03-23T07:41:54;3.40;;;1.63;;
18685;SDS011;9473;52.342;13.110;2023-03-23T07:44:21;4.88;;;1.88;;
18685;SDS011;9473;52.342;13.110;2023-03-23T07:46:49;3.72;;;1.85;;
18685;SDS011;9473;52.342;13.110;2023-03-23T07:49:16;2.28;;;1.80;;
18685;SDS011;9473;52.342;13.110;2023-03-23T07:51:43;3.70;;;1.40;;
18685;SDS011;9473;52.342;13.110;2023-03-23T07:54:10;3.67;;;1.42;;
18685;SDS011;9473;52.342;13.110;2023-03-23T07:56:37;2.33;;;1.48;;
18685;SDS011;9473;52.342;13.110;2023-03-23T07:59:07;3.35;;;1.50;;
18685;SDS011;9473;52.342;13.110;2023-03-23T08:01:35;3.40;;;1.63;;
18685;SDS011;9473;52.342;13.110;2023-03-23T08:04:02;3.85;;;1.95;;
18685;SDS011;9473;52.342;13.110;2023-03-23T08:06:29;3.75;;;1.85;;
18685;SDS011;9473;52.342;13.110;2023-03-23T08:08:59;2.75;;;1.55;;
18685;SDS011;9473;52.342;13.110;2023-03-23T08:11:31;4.43;;;2.10;;
18685;SDS011;9473;52.342;13.110;2023-03-23T08:13:59;3.47;;;1.50;;
18685;SDS011;9473;52.342;13.110;2023-03-23T08:16:27;2.72;;;1.52;;
18685;SDS011;9473;52.342;13.110;2023-03-23T08:18:54;2.78;;;1.60;;
18685;SDS011;9473;52.342;13.110;2023-03-23T08:21:21;3.97;;;1.80;;
18685;SDS011;9473;52.342;13.110;2023-03-23T08:23:48;2.67;;;1.60;;
18685;SDS011;9473;52.342;13.110;2023-03-23T08:26:15;2.63;;;1.50;;
18685;SDS011;9473;52.342;13.110;2023-03-23T08:28:43;4.32;;;1.55;;
18685;SDS011;9473;52.342;13.110;2023-03-23T08:31:10;2.30;;;1.50;;
18685;SDS011;9473;52.342;13.110;2023-03-23T08:33:39;3.45;;;1.77;;
18685;SDS011;9473;52.342;13.110;2023-03-23T08:36:07;4.82;;;1.50;;
18685;SDS011;9473;52.342;13.110;2023-03-23T08:38:34;1.70;;;1.38;;
18685;SDS011;9473;52.342;13.110;2023-03-23T08:41:04;2.30;;;1.50;;
18685;SDS011;9473;52.342;13.110;2023-03-23T08:43:32;3.08;;;1.45;;
18685;SDS011;9473;52.342;13.110;2023-03-23T08:45:59;4.85;;;1.50;;
18685;SDS011;9473;52.342;13.110;2023-03-23T08:48:31;5.57;;;1.83;;
18685;SDS011;9473;52.342;13.110;2023-03-23T08:51:01;4.72;;;1.67;;
18685;SDS011;9473;52.342;13.110;2023-03-23T08:53:28;2.83;;;1.48;;
18685;SDS011;9473;52.342;13.110;2023-03-23T08:55:56;3.47;;;1.50;;
18685;SDS011;9473;52.342;13.110;2023-03-23T08:58:23;4.43;;;1.63;;
18685;SDS011;9473;52.342;13.110;2023-03-23T09:00:50;2.40;;;1.38;;
18685;SDS011;9473;52.342;13.110;2023-03-23T09:03:17;2.67;;;1.45;;
18685;SDS011;9473;52.342;13.110;2023-03-23T09:05:44;3.88;;;1.73;;
18685;SDS011;9473;52.342;13.110;2023-03-23T09:08:12;4.45;;;1.60;;
18685;SDS011;9473;52.342;13.110;2023-03-23T09:10:40;4.80;;;1.52;;
18685;SDS011;9473;52.342;13.110;2023-03-23T09:13:07;4.85;;;1.65;;
18685;SDS011;9473;52.342;13.110;2023-03-23T09:15:34;4.10;;;1.60;;
18685;SDS011;9473;52.342;13.110;2023-03-23T09:18:01;4.35;;;1.50;;
18685;SDS011;9473;52.342;13.110;2023-03-23T09:20:28;2.75;;;1.27;;
18685;SDS011;9473;52.342;13.110;2023-03-23T09:22:56;2.92;;;1.42;;
18685;SDS011;9473;52.342;13.110;2023-03-23T09:25:26;1.70;;;1.15;;
18685;SDS011;9473;52.342;13.110;2023-03-23T09:27:53;2.58;;;1.73;;
18685;SDS011;9473;52.342;13.110;2023-03-23T09:30:21;2.63;;;1.55;;
18685;SDS011;9473;52.342;13.110;2023-03-23T09:32:48;3.47;;;1.20;;
18685;SDS011;9473;52.342;13.110;2023-03-23T09:35:15;2.88;;;1.70;;
18685;SDS011;9473;52.342;13.110;2023-03-23T09:37:43;2.25;;;1.25;;
18685;SDS011;9473;52.342;13.110;2023-03-23T09:40:11;3.35;;;1.65;;
18685;SDS011;9473;52.342;13.110;2023-03-23T09:42:43;2.67;;;1.48;;
18685;SDS011;9473;52.342;13.110;2023-03-23T09:45:15;2.72;;;1.40;;
18685;SDS011;9473;52.342;13.110;2023-03-23T09:47:57;2.47;;;1.42;;
18685;SDS011;9473;52.342;13.110;2023-03-23T09:50:27;2.22;;;1.23;;
18685;SDS011;9473;52.342;13.110;2023-03-23T09:52:58;2.60;;;1.50;;
18685;SDS011;9473;52.342;13.110;2023-03-23T09:55:25;3.20;;;1.60;;
18685;SDS011;9473;52.342;13.110;2023-03-23T09:57:56;2.25;;;1.40;;
18685;SDS011;9473;52.342;13.110;2023-03-23T10:00:26;2.35;;;1.17;;
18685;SDS011;9473;52.342;13.110;2023-03-23T10:02:58;2.45;;;1.40;;
18685;SDS011;9473;52.342;13.110;2023-03-23T10:05:29;1.30;;;1.00;;
18685;SDS011;9473;52.342;13.110;2023-03-23T10:07:56;2.00;;;1.27;;
18685;SDS011;9473;52.342;13.110;2023-03-23T10:10:24;2.05;;;1.30;;
18685;SDS011;9473;52.342;13.110;2023-03-23T10:12:55;2.45;;;1.30;;
18685;SDS011;9473;52.342;13.110;2023-03-23T10:15:23;2.85;;;1.50;;
18685;SDS011;9473;52.342;13.110;2023-03-23T10:17:54;2.78;;;1.30;;
18685;SDS011;9473;52.342;13.110;2023-03-23T10:20:29;4.43;;;1.48;;
18685;SDS011;9473;52.342;13.110;2023-03-23T10:22:59;1.80;;;1.10;;
18685;SDS011;9473;52.342;13.110;2023-03-23T10:25:29;3.45;;;1.20;;
18685;SDS011;9473;52.342;13.110;2023-03-23T10:27:59;2.00;;;1.30;;
18685;SDS011;9473;52.342;13.110;2023-03-23T10:30:29;3.70;;;1.42;;
18685;SDS011;9473;52.342;13.110;2023-03-23T10:32:58;2.95;;;1.30;;
18685;SDS011;9473;52.342;13.110;2023-03-23T10:35:28;2.60;;;1.10;;
18685;SDS011;9473;52.342;13.110;2023-03-23T10:37:58;1.80;;;1.25;;
18685;SDS011;9473;52.342;13.110;2023-03-23T10:40:27;3.10;;;1.35;;
18685;SDS011;9473;52.342;13.110;2023-03-23T10:42:55;3.30;;;1.23;;
18685;SDS011;9473;52.342;13.110;2023-03-23T10:45:25;2.08;;;1.20;;
18685;SDS011;9473;52.342;13.110;2023-03-23T10:47:55;2.85;;;1.33;;
18685;SDS011;9473;52.342;13.110;2023-03-23T10:50:26;2.22;;;1.20;;
18685;SDS011;9473;52.342;13.110;2023-03-23T10:52:53;2.85;;;1.50;;
18685;SDS011;9473;52.342;13.110;2023-03-23T10:55:23;4.22;;;1.20;;
18685;SDS011;9473;52.342;13.110;2023-03-23T10:57:59;1.55;;;1.10;;
18685;SDS011;9473;52.342;13.110;2023-03-23T11:00:28;1.85;;;1.17;;
18685;SDS011;9473;52.342;13.110;2023-03-23T11:03:00;2.45;;;1.50;;
18685;SDS011;9473;52.342;13.110;2023-03-23T11:05:31;2.55;;;1.10;;
18685;SDS011;9473;52.342;13.110;2023-03-23T11:07:59;3.10;;;1.20;;
18685;SDS011;9473;52.342;13.110;2023-03-23T11:10:28;2.33;;;1.30;;
18685;SDS011;9473;52.342;13.110;2023-03-23T11:12:56;2.83;;;1.38;;
18685;SDS011;9473;52.342;13.110;2023-03-23T11:15:29;2.05;;;1.13;;
18685;SDS011;9473;52.342;13.110;2023-03-23T11:17:57;2.20;;;1.50;;
18685;SDS011;9473;52.342;13.110;2023-03-23T11:20:25;5.25;;;1.60;;
18685;SDS011;9473;52.342;13.110;2023-03-23T11:22:53;2.13;;;1.27;;
18685;SDS011;9473;52.342;13.110;2023-03-23T11:25:20;2.58;;;1.52;;
18685;SDS011;9473;52.342;13.110;2023-03-23T11:27:47;2.60;;;1.10;;
18685;SDS011;9473;52.342;13.110;2023-03-23T11:30:19;1.90;;;1.10;;
18685;SDS011;9473;52.342;13.110;2023-03-23T11:32:49;2.38;;;1.20;;
18685;SDS011;9473;52.342;13.110;2023-03-23T11:35:18;2.92;;;1.27;;
18685;SDS011;9473;52.342;13.110;2023-03-23T11:37:46;4.00;;;1.40;;
18685;SDS011;9473;52.342;13.110;2023-03-23T11:40:15;3.45;;;1.30;;
18685;SDS011;9473;52.342;13.110;2023-03-23T11:42:44;2.10;;;1.25;;
18685;SDS011;9473;52.342;13.110;2023-03-23T11:45:18;1.75;;;1.17;;
18685;SDS011;9473;52.342;13.110;2023-03-23T11:47:49;1.90;;;1.10;;
18685;SDS011;9473;52.342;13.110;2023-03-23T11:50:18;3.00;;;1.20;;
18685;SDS011;9473;52.342;13.110;2023-03-23T11:52:47;2.00;;;1.08;;
18685;SDS011;9473;52.342;13.110;2023-03-23T11:55:19;2.75;;;1.10;;
18685;SDS011;9473;52.342;13.110;2023-03-23T11:57:47;2.28;;;1.30;;
18685;SDS011;9473;52.342;13.110;2023-03-23T12:00:20;3.08;;;1.30;;
18685;SDS011;9473;52.342;13.110;2023-03-23T12:02:50;2.38;;;1.25;;
18685;SDS011;9473;52.342;13.110;2023-03-23T12:05:26;1.65;;;1.20;;
18685;SDS011;9473;52.342;13.110;2023-03-23T12:07:56;2.42;;;1.27;;
18685;SDS011;9473;52.342;13.110;2023-03-23T12:10:29;1.65;;;1.27;;
18685;SDS011;9473;52.342;13.110;2023-03-23T12:13:01;1.50;;;1.20;;
18685;SDS011;9473;52.342;13.110;2023-03-23T12:15:30;3.42;;;1.20;;
18685;SDS011;9473;52.342;13.110;2023-03-23T12:18:05;2.05;;;1.15;;
18685;SDS011;9473;52.342;13.110;2023-03-23T12:20:37;2.67;;;1.33;;
18685;SDS011;9473;52.342;13.110;2023-03-23T12:23:19;4.50;;;1.25;;
18685;SDS011;9473;52.342;13.110;2023-03-23T12:25:50;4.50;;;1.30;;
18685;SDS011;9473;52.342;13.110;2023-03-23T12:28:22;2.72;;;1.42;;
18685;SDS011;9473;52.342;13.110;2023-03-23T12:30:57;4.18;;;1.40;;
18685;SDS011;9473;52.342;13.110;2023-03-23T12:33:29;2.30;;;1.30;;
18685;SDS011;9473;52.342;13.110;2023-03-23T12:36:03;2.33;;;1.40;;
18685;SDS011;9473;52.342;13.110;2023-03-23T12:38:35;3.33;;;1.30;;
18685;SDS011;9473;52.342;13.110;2023-03-23T12:41:14;2.83;;;1.30;;
18685;SDS011;9473;52.342;13.110;2023-03-23T12:43:56;2.03;;;1.15;;
18685;SDS011;9473;52.342;13.110;2023-03-23T12:46:37;5.43;;;1.50;;
18685;SDS011;9473;52.342;13.110;2023-03-23T12:49:09;3.78;;;1.10;;
18685;SDS011;9473;52.342;13.110;2023-03-23T12:51:39;4.20;;;1.65;;
18685;SDS011;9473;52.342;13.110;2023-03-23T12:54:09;1.80;;;1.20;;
18685;SDS011;9473;52.342;13.110;2023-03-23T12:56:39;2.85;;;1.25;;
18685;SDS011;9473;52.342;13.110;2023-03-23T12:59:10;2.45;;;1.55;;
18685;SDS011;9473;52.342;13.110;2023-03-23T13:01:47;3.13;;;1.35;;
18685;SDS011;9473;52.342;13.110;2023-03-23T13:04:40;1.50;;;1.05;;
18685;SDS011;9473;52.342;13.110;2023-03-23T13:07:21;4.80;;;1.50;;
18685;SDS011;9473;52.342;13.110;2023-03-23T13:09:52;2.40;;;1.20;;
18685;SDS011;9473;52.342;13.110;2023-03-23T13:12:20;2.97;;;1.38;;
18685;SDS011;9473;52.342;13.110;2023-03-23T13:15:37;3.85;;;1.42;;
18685;SDS011;9473;52.342;13.110;2023-03-23T13:18:44;5.57;;;1.20;;
18685;SDS011;9473;52.342;13.110;2023-03-23T13:21:19;4.03;;;1.38;;
18685;SDS011;9473;52.342;13.110;2023-03-23T13:23:49;1.75;;;1.10;;
18685;SDS011;9473;52.342;13.110;2023-03-23T13:26:29;4.07;;;1.02;;
18685;SDS011;9473;52.342;13.110;2023-03-23T13:29:26;3.28;;;1.30;;
18685;SDS011;9473;52.342;13.110;2023-03-23T13:32:40;3.22;;;1.23;;
18685;SDS011;9473;52.342;13.110;2023-03-23T13:35:52;1.52;;;1.00;;
18685;SDS011;9473;52.342;13.110;2023-03-23T13:38:35;2.70;;;1.15;;
18685;SDS011;9473;52.342;13.110;2023-03-23T13:41:58;3.35;;;1.73;;
18685;SDS011;9473;52.342;13.110;2023-03-23T13:44:54;4.03;;;1.20;;
18685;SDS011;9473;52.342;13.110;2023-03-23T13:48:17;2.53;;;1.10;;
18685;SDS011;9473;52.342;13.110;2023-03-23T13:50:52;4.25;;;1.42;;
18685;SDS011;9473;52.342;13.110;2023-03-23T13:54:15;3.53;;;1.25;;
18685;SDS011;9473;52.342;13.110;2023-03-23T13:57:35;3.90;;;1.20;;
18685;SDS011;9473;52.342;13.110;2023-03-23T14:00:46;5.18;;;1.27;;
18685;SDS011;9473;52.342;13.110;2023-03-23T14:03:36;2.72;;;1.20;;
18685;SDS011;9473;52.342;13.110;2023-03-23T14:06:50;1.70;;;1.30;;
18685;SDS011;9473;52.342;13.110;2023-03-23T14:09:34;3.05;;;1.17;;
18685;SDS011;9473;52.342;13.110;2023-03-23T14:12:13;3.00;;;1.30;;
18685;SDS011;9473;52.342;13.110;2023-03-23T14:14:56;4.82;;;1.30;;
18685;SDS011;9473;52.342;13.110;2023-03-23T14:17:49;3.95;;;1.08;;
18685;SDS011;9473;52.342;13.110;2023-03-23T14:20:29;3.30;;;1.13;;
18685;SDS011;9473;52.342;13.110;2023-03-23T14:23:04;3.45;;;1.45;;
18685;SDS011;9473;52.342;13.110;2023-03-23T14:26:22;2.75;;;1.20;;
18685;SDS011;9473;52.342;13.110;2023-03-23T14:29:19;1.75;;;1.20;;
18685;SDS011;9473;52.342;13.110;2023-03-23T14:32:33;4.20;;;1.10;;
18685;SDS011;9473;52.342;13.110;2023-03-23T14:35:26;2.40;;;1.20;;
18685;SDS011;9473;52.342;13.110;2023-03-23T14:38:28;3.35;;;1.00;;
18685;SDS011;9473;52.342;13.110;2023-03-23T14:41:43;2.50;;;0.98;;
18685;SDS011;9473;52.342;13.110;2023-03-23T14:44:43;2.53;;;1.10;;
18685;SDS011;9473;52.342;13.110;2023-03-23T14:47:18;2.58;;;1.20;;
18685;SDS011;9473;52.342;13.110;2023-03-23T14:50:26;2.90;;;1.20;;
18685;SDS011;9473;52.342;13.110;2023-03-23T14:52:56;1.48;;;1.00;;
18685;SDS011;9473;52.342;13.110;2023-03-23T14:56:09;2.13;;;1.05;;
18685;SDS011;9473;52.342;13.110;2023-03-23T14:59:18;1.20;;;0.82;;
18685;SDS011;9473;52.342;13.110;2023-03-23T15:02:32;1.60;;;1.00;;
18685;SDS011;9473;52.342;13.110;2023-03-23T15:05:26;2.80;;;1.00;;
18685;SDS011;9473;52.342;13.110;2023-03-23T15:08:25;2.58;;;1.00;;
18685;SDS011;9473;52.342;13.110;2023-03-23T15:11:38;2.13;;;0.80;;
18685;SDS011;9473;52.342;13.110;2023-03-23T15:14:09;1.85;;;0.93;;
18685;SDS011;9473;52.342;13.110;2023-03-23T15:17:01;2.83;;;0.98;;
18685;SDS011;9473;52.342;13.110;2023-03-23T15:20:19;1.70;;;1.00;;
18685;SDS011;9473;52.342;13.110;2023-03-23T15:22:52;2.97;;;1.08;;
18685;SDS011;9473;52.342;13.110;2023-03-23T15:26:06;2.78;;;1.10;;
18685;SDS011;9473;52.342;13.110;2023-03-23T15:29:20;2.55;;;0.95;;